sensor_id;sensor_type;location;lat;lon;timestamp;temperature;humidity
7192;DHT22;3637;51.494;11.958;2023-02-28T00:00:11;2.90;97.10
7192;DHT22;3637;51.494;11.958;2023-02-28T00:03:13;2.90;97.70
7192;DHT22;3637;51.494;11.958;2023-02-28T00:06:16;2.90;97.70
7192;DHT22;3637;51.494;11.958;2023-02-28T00:09:18;2.90;98.30
7192;DHT22;3637;51.494;11.958;2023-02-28T00:12:20;3.30;97.70
7192;DHT22;3637;51.494;11.958;2023-02-28T00:15:24;2.90;98.20
7192;DHT22;3637;51.494;11.958;2023-02-28T00:18:26;2.90;97.80
7192;DHT22;3637;51.494;11.958;2023-02-28T00:21:27;2.90;98.10
7192;DHT22;3637;51.494;11.958;2023-02-28T00:24:29;2.90;98.00
7192;DHT22;3637;51.494;11.958;2023-02-28T00:27:31;2.90;97.70
7192;DHT22;3637;51.494;11.958;2023-02-28T00:30:34;2.90;97.60
7192;DHT22;3637;51.494;11.958;2023-02-28T00:33:36;2.90;97.90
7192;DHT22;3637;51.494;11.958;2023-02-28T00:36:38;3.40;98.30
7192;DHT22;3637;51.494;11.958;2023-02-28T00:39:41;3.00;98.10
7192;DHT22;3637;51.494;11.958;2023-02-28T00:42:43;3.40;98.10
7192;DHT22;3637;51.494;11.958;2023-02-28T00:45:46;2.90;98.00
7192;DHT22;3637;51.494;11.958;2023-02-28T00:48:50;2.90;98.40
7192;DHT22;3637;51.494;11.958;2023-02-28T00:51:52;2.90;98.60
7192;DHT22;3637;51.494;11.958;2023-02-28T00:54:54;3.10;99.20
7192;DHT22;3637;51.494;11.958;2023-02-28T00:57:56;2.80;98.40
7192;DHT22;3637;51.494;11.958;2023-02-28T01:01:00;3.20;98.90
7192;DHT22;3637;51.494;11.958;2023-02-28T01:04:01;2.80;98.60
7192;DHT22;3637;51.494;11.958;2023-02-28T01:07:03;2.70;99.00
7192;DHT22;3637;51.494;11.958;2023-02-28T01:10:06;2.60;98.90
7192;DHT22;3637;51.494;11.958;2023-02-28T01:13:08;2.60;99.10
7192;DHT22;3637;51.494;11.958;2023-02-28T01:16:12;3.00;99.20
7192;DHT22;3637;51.494;11.958;2023-02-28T01:19:14;2.60;99.10
7192;DHT22;3637;51.494;11.958;2023-02-28T01:22:16;2.90;99.60
7192;DHT22;3637;51.494;11.958;2023-02-28T01:25:18;2.80;99.90
7192;DHT22;3637;51.494;11.958;2023-02-28T01:28:19;2.60;99.90
7192;DHT22;3637;51.494;11.958;2023-02-28T01:31:23;2.50;99.90
7192;DHT22;3637;51.494;11.958;2023-02-28T01:34:25;2.60;99.90
7192;DHT22;3637;51.494;11.958;2023-02-28T01:37:27;2.60;99.90
7192;DHT22;3637;51.494;11.958;2023-02-28T01:40:29;2.60;99.90
7192;DHT22;3637;51.494;11.958;2023-02-28T01:43:32;3.00;99.90
7192;DHT22;3637;51.494;11.958;2023-02-28T01:46:35;2.60;99.90
7192;DHT22;3637;51.494;11.958;2023-02-28T01:49:38;2.60;99.90
7192;DHT22;3637;51.494;11.958;2023-02-28T01:52:40;2.60;99.90
7192;DHT22;3637;51.494;11.958;2023-02-28T01:55:46;2.60;99.90
7192;DHT22;3637;51.494;11.958;2023-02-28T01:58:50;2.40;99.90
7192;DHT22;3637;51.494;11.958;2023-02-28T02:01:54;2.50;99.90
7192;DHT22;3637;51.494;11.958;2023-02-28T02:04:59;2.50;99.90
7192;DHT22;3637;51.494;11.958;2023-02-28T02:08:04;3.30;99.90
7192;DHT22;3637;51.494;11.958;2023-02-28T02:11:11;2.50;99.90
7192;DHT22;3637;51.494;11.958;2023-02-28T02:17:44;2.50;99.90
7192;DHT22;3637;51.494;11.958;2023-02-28T02:21:13;2.50;99.90
7192;DHT22;3637;51.494;11.958;2023-02-28T02:28:18;2.40;99.90
7192;DHT22;3637;51.494;11.958;2023-02-28T02:31:56;2.50;99.90
7192;DHT22;3637;51.494;11.958;2023-02-28T02:35:12;2.60;99.90
7192;DHT22;3637;51.494;11.958;2023-02-28T02:38:22;2.50;99.90
7192;DHT22;3637;51.494;11.958;2023-02-28T02:41:33;2.50;99.90
7192;DHT22;3637;51.494;11.958;2023-02-28T02:44:42;2.50;99.90
7192;DHT22;3637;51.494;11.958;2023-02-28T02:47:46;2.60;99.90
7192;DHT22;3637;51.494;11.958;2023-02-28T02:50:54;2.50;99.90
7192;DHT22;3637;51.494;11.958;2023-02-28T02:54:00;2.50;99.90
7192;DHT22;3637;51.494;11.958;2023-02-28T02:57:07;2.50;99.90
7192;DHT22;3637;51.494;11.958;2023-02-28T03:00:11;3.10;99.90
7192;DHT22;3637;51.494;11.958;2023-02-28T03:03:14;2.40;99.90
7192;DHT22;3637;51.494;11.958;2023-02-28T03:06:19;2.40;99.90
7192;DHT22;3637;51.494;11.958;2023-02-28T03:09:21;2.40;99.90
7192;DHT22;3637;51.494;11.958;2023-02-28T03:12:32;3.10;99.90
7192;DHT22;3637;51.494;11.958;2023-02-28T03:15:40;3.50;99.90
7192;DHT22;3637;51.494;11.958;2023-02-28T03:18:53;2.50;99.90
7192;DHT22;3637;51.494;11.958;2023-02-28T03:22:14;3.70;99.90
7192;DHT22;3637;51.494;11.958;2023-02-28T03:25:20;2.60;99.90
7192;DHT22;3637;51.494;11.958;2023-02-28T03:28:30;2.50;99.90
7192;DHT22;3637;51.494;11.958;2023-02-28T03:31:37;2.50;99.90
7192;DHT22;3637;51.494;11.958;2023-02-28T03:34:42;2.50;99.90
7192;DHT22;3637;51.494;11.958;2023-02-28T03:37:50;2.40;99.90
7192;DHT22;3637;51.494;11.958;2023-02-28T03:40:58;2.50;99.90
7192;DHT22;3637;51.494;11.958;2023-02-28T03:44:05;2.40;99.90
7192;DHT22;3637;51.494;11.958;2023-02-28T03:47:10;2.50;99.90
7192;DHT22;3637;51.494;11.958;2023-02-28T03:50:18;1.70;99.90
7192;DHT22;3637;51.494;11.958;2023-02-28T03:53:29;2.50;99.90
7192;DHT22;3637;51.494;11.958;2023-02-28T03:56:36;2.50;99.90
7192;DHT22;3637;51.494;11.958;2023-02-28T03:59:43;2.50;99.90
7192;DHT22;3637;51.494;11.958;2023-02-28T04:02:46;2.30;99.90
7192;DHT22;3637;51.494;11.958;2023-02-28T04:05:54;2.50;99.90
7192;DHT22;3637;51.494;11.958;2023-02-28T04:08:58;2.50;99.90
7192;DHT22;3637;51.494;11.958;2023-02-28T04:12:00;2.50;99.90
7192;DHT22;3637;51.494;11.958;2023-02-28T04:15:03;2.60;99.90
7192;DHT22;3637;51.494;11.958;2023-02-28T04:18:06;2.50;99.90
7192;DHT22;3637;51.494;11.958;2023-02-28T04:21:07;2.60;99.90
7192;DHT22;3637;51.494;11.958;2023-02-28T04:24:13;2.80;99.90
7192;DHT22;3637;51.494;11.958;2023-02-28T04:27:15;2.50;99.90
7192;DHT22;3637;51.494;11.958;2023-02-28T04:30:17;2.50;99.90
7192;DHT22;3637;51.494;11.958;2023-02-28T04:33:19;2.50;99.90
7192;DHT22;3637;51.494;11.958;2023-02-28T04:36:21;2.50;99.90
7192;DHT22;3637;51.494;11.958;2023-02-28T04:39:26;2.80;99.90
7192;DHT22;3637;51.494;11.958;2023-02-28T04:42:28;2.50;99.90
7192;DHT22;3637;51.494;11.958;2023-02-28T04:45:35;3.60;99.90
7192;DHT22;3637;51.494;11.958;2023-02-28T04:48:38;3.90;99.90
7192;DHT22;3637;51.494;11.958;2023-02-28T04:51:41;3.10;99.90
7192;DHT22;3637;51.494;11.958;2023-02-28T04:54:44;2.90;99.90
7192;DHT22;3637;51.494;11.958;2023-02-28T04:57:46;2.90;99.90
7192;DHT22;3637;51.494;11.958;2023-02-28T05:00:48;2.40;99.90
7192;DHT22;3637;51.494;11.958;2023-02-28T05:03:51;2.30;99.90
7192;DHT22;3637;51.494;11.958;2023-02-28T05:06:53;2.50;99.90
7192;DHT22;3637;51.494;11.958;2023-02-28T05:10:00;2.20;99.90
7192;DHT22;3637;51.494;11.958;2023-02-28T05:13:02;2.20;99.90
7192;DHT22;3637;51.494;11.958;2023-02-28T05:16:04;2.20;99.90
7192;DHT22;3637;51.494;11.958;2023-02-28T05:19:07;2.10;99.90
7192;DHT22;3637;51.494;11.958;2023-02-28T05:22:13;2.10;99.90
7192;DHT22;3637;51.494;11.958;2023-02-28T05:25:21;2.90;99.90
7192;DHT22;3637;51.494;11.958;2023-02-28T05:28:23;2.10;99.90
7192;DHT22;3637;51.494;11.958;2023-02-28T05:31:28;2.10;99.90
7192;DHT22;3637;51.494;11.958;2023-02-28T05:34:30;2.10;99.90
7192;DHT22;3637;51.494;11.958;2023-02-28T05:37:32;2.20;99.90
7192;DHT22;3637;51.494;11.958;2023-02-28T05:40:38;2.70;99.90
7192;DHT22;3637;51.494;11.958;2023-02-28T05:43:40;2.20;99.90
7192;DHT22;3637;51.494;11.958;2023-02-28T05:46:42;2.50;99.90
7192;DHT22;3637;51.494;11.958;2023-02-28T05:49:44;2.10;99.90
7192;DHT22;3637;51.494;11.958;2023-02-28T05:52:49;2.20;99.90
7192;DHT22;3637;51.494;11.958;2023-02-28T05:55:52;2.10;99.90
7192;DHT22;3637;51.494;11.958;2023-02-28T05:58:54;2.10;99.90
7192;DHT22;3637;51.494;11.958;2023-02-28T06:01:57;2.00;99.90
7192;DHT22;3637;51.494;11.958;2023-02-28T06:04:59;2.00;99.90
7192;DHT22;3637;51.494;11.958;2023-02-28T06:08:01;2.10;99.90
7192;DHT22;3637;51.494;11.958;2023-02-28T06:11:04;2.00;99.90
7192;DHT22;3637;51.494;11.958;2023-02-28T06:14:07;2.10;99.90
7192;DHT22;3637;51.494;11.958;2023-02-28T06:17:14;2.00;99.90
7192;DHT22;3637;51.494;11.958;2023-02-28T06:20:16;2.00;99.90
7192;DHT22;3637;51.494;11.958;2023-02-28T06:23:18;2.00;99.90
7192;DHT22;3637;51.494;11.958;2023-02-28T06:26:22;2.40;99.90
7192;DHT22;3637;51.494;11.958;2023-02-28T06:29:27;2.00;99.90
7192;DHT22;3637;51.494;11.958;2023-02-28T06:32:30;1.90;99.90
7192;DHT22;3637;51.494;11.958;2023-02-28T06:35:35;3.10;99.90
7192;DHT22;3637;51.494;11.958;2023-02-28T06:38:40;3.10;99.90
7192;DHT22;3637;51.494;11.958;2023-02-28T06:41:46;1.90;99.90
7192;DHT22;3637;51.494;11.958;2023-02-28T06:44:48;1.80;99.90
7192;DHT22;3637;51.494;11.958;2023-02-28T06:47:50;2.60;99.90
7192;DHT22;3637;51.494;11.958;2023-02-28T06:51:00;2.20;99.90
7192;DHT22;3637;51.494;11.958;2023-02-28T06:54:02;1.80;99.90
7192;DHT22;3637;51.494;11.958;2023-02-28T06:57:08;2.10;99.90
7192;DHT22;3637;51.494;11.958;2023-02-28T07:00:11;1.90;99.90
7192;DHT22;3637;51.494;11.958;2023-02-28T07:03:13;1.80;99.90
7192;DHT22;3637;51.494;11.958;2023-02-28T07:06:16;1.80;99.90
7192;DHT22;3637;51.494;11.958;2023-02-28T07:09:19;1.90;99.90
7192;DHT22;3637;51.494;11.958;2023-02-28T07:12:23;1.90;99.90
7192;DHT22;3637;51.494;11.958;2023-02-28T07:15:24;1.60;99.90
7192;DHT22;3637;51.494;11.958;2023-02-28T07:18:27;2.10;99.90
7192;DHT22;3637;51.494;11.958;2023-02-28T07:21:29;2.10;99.90
7192;DHT22;3637;51.494;11.958;2023-02-28T07:24:34;2.20;99.90
7192;DHT22;3637;51.494;11.958;2023-02-28T07:27:37;2.20;99.90
7192;DHT22;3637;51.494;11.958;2023-02-28T07:30:39;2.20;99.90
7192;DHT22;3637;51.494;11.958;2023-02-28T07:33:42;2.20;99.90
7192;DHT22;3637;51.494;11.958;2023-02-28T07:36:44;2.30;99.90
7192;DHT22;3637;51.494;11.958;2023-02-28T07:39:46;2.30;99.90
7192;DHT22;3637;51.494;11.958;2023-02-28T07:42:49;3.10;99.90
7192;DHT22;3637;51.494;11.958;2023-02-28T07:45:51;2.50;99.90
7192;DHT22;3637;51.494;11.958;2023-02-28T07:48:52;2.60;99.90
7192;DHT22;3637;51.494;11.958;2023-02-28T07:51:55;2.70;99.90
7192;DHT22;3637;51.494;11.958;2023-02-28T07:54:57;2.70;99.90
7192;DHT22;3637;51.494;11.958;2023-02-28T07:58:00;2.70;99.90
7192;DHT22;3637;51.494;11.958;2023-02-28T08:01:09;2.80;99.90
7192;DHT22;3637;51.494;11.958;2023-02-28T08:04:12;2.80;99.90
7192;DHT22;3637;51.494;11.958;2023-02-28T08:07:13;2.90;99.60
7192;DHT22;3637;51.494;11.958;2023-02-28T08:10:16;2.90;99.90
7192;DHT22;3637;51.494;11.958;2023-02-28T08:13:19;2.90;99.90
7192;DHT22;3637;51.494;11.958;2023-02-28T08:16:22;3.00;99.40
7192;DHT22;3637;51.494;11.958;2023-02-28T08:19:24;3.20;99.40
7192;DHT22;3637;51.494;11.958;2023-02-28T08:22:26;4.10;98.90
7192;DHT22;3637;51.494;11.958;2023-02-28T08:25:28;3.30;98.60
7192;DHT22;3637;51.494;11.958;2023-02-28T08:28:32;3.10;99.10
7192;DHT22;3637;51.494;11.958;2023-02-28T08:31:34;3.40;99.20
7192;DHT22;3637;51.494;11.958;2023-02-28T08:34:39;3.30;99.10
7192;DHT22;3637;51.494;11.958;2023-02-28T08:37:43;3.90;99.10
7192;DHT22;3637;51.494;11.958;2023-02-28T08:40:45;3.60;99.40
7192;DHT22;3637;51.494;11.958;2023-02-28T08:43:48;3.60;98.50
7192;DHT22;3637;51.494;11.958;2023-02-28T08:46:50;3.70;98.60
7192;DHT22;3637;51.494;11.958;2023-02-28T08:49:52;3.80;98.00
7192;DHT22;3637;51.494;11.958;2023-02-28T08:52:53;3.80;97.80
7192;DHT22;3637;51.494;11.958;2023-02-28T08:55:56;4.30;97.50
7192;DHT22;3637;51.494;11.958;2023-02-28T08:59:03;3.90;97.20
7192;DHT22;3637;51.494;11.958;2023-02-28T09:02:05;3.90;96.10
7192;DHT22;3637;51.494;11.958;2023-02-28T09:05:08;4.40;95.80
7192;DHT22;3637;51.494;11.958;2023-02-28T09:08:10;4.10;96.10
7192;DHT22;3637;51.494;11.958;2023-02-28T09:11:12;4.10;95.70
7192;DHT22;3637;51.494;11.958;2023-02-28T09:14:15;4.20;96.30
7192;DHT22;3637;51.494;11.958;2023-02-28T09:17:18;4.20;96.20
7192;DHT22;3637;51.494;11.958;2023-02-28T09:20:21;4.30;94.90
7192;DHT22;3637;51.494;11.958;2023-02-28T09:23:23;4.40;93.30
7192;DHT22;3637;51.494;11.958;2023-02-28T09:26:27;5.50;93.10
7192;DHT22;3637;51.494;11.958;2023-02-28T09:29:33;4.60;92.10
7192;DHT22;3637;51.494;11.958;2023-02-28T09:32:35;5.70;92.20
7192;DHT22;3637;51.494;11.958;2023-02-28T09:35:37;4.70;90.80
7192;DHT22;3637;51.494;11.958;2023-02-28T09:38:39;4.80;90.80
7192;DHT22;3637;51.494;11.958;2023-02-28T09:41:43;4.60;90.70
7192;DHT22;3637;51.494;11.958;2023-02-28T09:44:50;4.70;90.00
7192;DHT22;3637;51.494;11.958;2023-02-28T09:47:54;4.80;86.20
7192;DHT22;3637;51.494;11.958;2023-02-28T09:51:02;4.90;87.10
7192;DHT22;3637;51.494;11.958;2023-02-28T09:54:04;5.00;82.60
7192;DHT22;3637;51.494;11.958;2023-02-28T09:57:08;5.00;82.00
7192;DHT22;3637;51.494;11.958;2023-02-28T10:00:15;5.20;80.10
7192;DHT22;3637;51.494;11.958;2023-02-28T10:03:26;5.30;80.00
7192;DHT22;3637;51.494;11.958;2023-02-28T10:06:32;5.30;76.60
7192;DHT22;3637;51.494;11.958;2023-02-28T10:09:37;5.20;74.50
7192;DHT22;3637;51.494;11.958;2023-02-28T10:12:40;5.10;73.40
7192;DHT22;3637;51.494;11.958;2023-02-28T10:15:49;5.30;73.30
7192;DHT22;3637;51.494;11.958;2023-02-28T10:18:56;5.20;74.50
7192;DHT22;3637;51.494;11.958;2023-02-28T10:22:00;6.50;75.10
7192;DHT22;3637;51.494;11.958;2023-02-28T10:25:16;5.90;73.80
7192;DHT22;3637;51.494;11.958;2023-02-28T10:28:18;5.00;70.90
7192;DHT22;3637;51.494;11.958;2023-02-28T10:31:22;5.50;71.80
7192;DHT22;3637;51.494;11.958;2023-02-28T10:34:24;5.10;73.10
7192;DHT22;3637;51.494;11.958;2023-02-28T10:37:26;5.20;74.30
7192;DHT22;3637;51.494;11.958;2023-02-28T10:40:32;5.20;74.40
7192;DHT22;3637;51.494;11.958;2023-02-28T10:43:36;5.20;75.30
7192;DHT22;3637;51.494;11.958;2023-02-28T10:46:40;5.20;75.20
7192;DHT22;3637;51.494;11.958;2023-02-28T10:49:47;5.20;74.80
7192;DHT22;3637;51.494;11.958;2023-02-28T10:52:49;5.20;74.30
7192;DHT22;3637;51.494;11.958;2023-02-28T10:55:57;5.30;73.90
7192;DHT22;3637;51.494;11.958;2023-02-28T10:59:01;5.20;74.40
7192;DHT22;3637;51.494;11.958;2023-02-28T11:02:29;5.20;74.20
7192;DHT22;3637;51.494;11.958;2023-02-28T11:05:36;5.30;73.20
7192;DHT22;3637;51.494;11.958;2023-02-28T11:08:45;5.70;73.10
7192;DHT22;3637;51.494;11.958;2023-02-28T11:11:48;5.30;72.10
7192;DHT22;3637;51.494;11.958;2023-02-28T11:14:55;5.40;73.80
7192;DHT22;3637;51.494;11.958;2023-02-28T11:18:02;5.40;73.60
7192;DHT22;3637;51.494;11.958;2023-02-28T11:21:04;5.50;72.20
7192;DHT22;3637;51.494;11.958;2023-02-28T11:24:17;5.50;73.10
7192;DHT22;3637;51.494;11.958;2023-02-28T11:27:45;5.70;74.20
7192;DHT22;3637;51.494;11.958;2023-02-28T11:31:00;5.90;72.40
7192;DHT22;3637;51.494;11.958;2023-02-28T11:34:24;6.00;72.50
7192;DHT22;3637;51.494;11.958;2023-02-28T11:37:28;5.90;73.90
7192;DHT22;3637;51.494;11.958;2023-02-28T11:40:38;6.00;74.70
7192;DHT22;3637;51.494;11.958;2023-02-28T11:43:54;6.00;75.00
7192;DHT22;3637;51.494;11.958;2023-02-28T11:47:04;6.70;73.60
7192;DHT22;3637;51.494;11.958;2023-02-28T11:50:32;6.40;73.40
7192;DHT22;3637;51.494;11.958;2023-02-28T11:53:53;6.50;72.20
7192;DHT22;3637;51.494;11.958;2023-02-28T11:57:03;6.30;71.50
7192;DHT22;3637;51.494;11.958;2023-02-28T12:00:23;6.30;72.20
7192;DHT22;3637;51.494;11.958;2023-02-28T12:03:34;6.20;70.40
7192;DHT22;3637;51.494;11.958;2023-02-28T12:06:45;6.10;71.60
7192;DHT22;3637;51.494;11.958;2023-02-28T12:09:56;6.10;72.10
7192;DHT22;3637;51.494;11.958;2023-02-28T12:13:09;6.00;72.60
7192;DHT22;3637;51.494;11.958;2023-02-28T12:16:25;5.90;71.60
7192;DHT22;3637;51.494;11.958;2023-02-28T12:19:34;5.90;73.10
7192;DHT22;3637;51.494;11.958;2023-02-28T12:22:47;6.00;73.30
7192;DHT22;3637;51.494;11.958;2023-02-28T12:26:07;6.10;72.10
7192;DHT22;3637;51.494;11.958;2023-02-28T12:29:16;6.00;72.90
7192;DHT22;3637;51.494;11.958;2023-02-28T12:32:23;6.00;73.20
7192;DHT22;3637;51.494;11.958;2023-02-28T12:35:33;6.00;73.10
7192;DHT22;3637;51.494;11.958;2023-02-28T12:38:41;6.00;73.20
7192;DHT22;3637;51.494;11.958;2023-02-28T12:41:47;6.40;73.70
7192;DHT22;3637;51.494;11.958;2023-02-28T12:44:54;5.40;72.80
7192;DHT22;3637;51.494;11.958;2023-02-28T12:48:00;6.00;72.80
7192;DHT22;3637;51.494;11.958;2023-02-28T12:51:05;5.90;72.10
7192;DHT22;3637;51.494;11.958;2023-02-28T12:54:16;5.90;71.20
7192;DHT22;3637;51.494;11.958;2023-02-28T12:57:27;5.80;71.90
7192;DHT22;3637;51.494;11.958;2023-02-28T13:00:35;5.80;72.60
7192;DHT22;3637;51.494;11.958;2023-02-28T13:04:14;6.40;71.50
7192;DHT22;3637;51.494;11.958;2023-02-28T13:11:25;5.80;73.00
7192;DHT22;3637;51.494;11.958;2023-02-28T13:14:29;5.80;72.40
7192;DHT22;3637;51.494;11.958;2023-02-28T13:17:32;5.80;71.60
7192;DHT22;3637;51.494;11.958;2023-02-28T13:20:36;5.80;72.50
7192;DHT22;3637;51.494;11.958;2023-02-28T13:23:56;6.00;72.60
7192;DHT22;3637;51.494;11.958;2023-02-28T13:27:34;5.80;71.40
7192;DHT22;3637;51.494;11.958;2023-02-28T13:31:00;5.90;71.50
7192;DHT22;3637;51.494;11.958;2023-02-28T13:34:13;5.80;72.70
7192;DHT22;3637;51.494;11.958;2023-02-28T13:37:41;6.20;74.20
7192;DHT22;3637;51.494;11.958;2023-02-28T13:40:44;6.10;72.50
7192;DHT22;3637;51.494;11.958;2023-02-28T13:44:05;6.40;72.40
7192;DHT22;3637;51.494;11.958;2023-02-28T13:47:22;6.20;73.00
7192;DHT22;3637;51.494;11.958;2023-02-28T13:50:32;6.10;73.20
7192;DHT22;3637;51.494;11.958;2023-02-28T13:53:57;6.60;73.00
7192;DHT22;3637;51.494;11.958;2023-02-28T13:57:12;5.70;72.20
7192;DHT22;3637;51.494;11.958;2023-02-28T14:00:33;5.70;74.30
7192;DHT22;3637;51.494;11.958;2023-02-28T14:03:45;6.20;74.20
7192;DHT22;3637;51.494;11.958;2023-02-28T14:06:52;7.10;74.10
7192;DHT22;3637;51.494;11.958;2023-02-28T14:09:59;6.60;73.70
7192;DHT22;3637;51.494;11.958;2023-02-28T14:13:36;6.10;71.30
7192;DHT22;3637;51.494;11.958;2023-02-28T14:16:43;6.10;70.80
7192;DHT22;3637;51.494;11.958;2023-02-28T14:19:46;5.90;71.50
7192;DHT22;3637;51.494;11.958;2023-02-28T14:22:56;6.60;72.70
7192;DHT22;3637;51.494;11.958;2023-02-28T14:26:13;6.20;73.90
7192;DHT22;3637;51.494;11.958;2023-02-28T14:29:31;6.00;73.10
7192;DHT22;3637;51.494;11.958;2023-02-28T14:36:21;6.10;72.10
7192;DHT22;3637;51.494;11.958;2023-02-28T14:39:29;5.90;72.30
7192;DHT22;3637;51.494;11.958;2023-02-28T14:42:33;6.50;73.10
7192;DHT22;3637;51.494;11.958;2023-02-28T14:45:36;5.80;73.00
7192;DHT22;3637;51.494;11.958;2023-02-28T14:48:40;5.70;72.80
7192;DHT22;3637;51.494;11.958;2023-02-28T14:51:42;5.80;73.60
7192;DHT22;3637;51.494;11.958;2023-02-28T14:54:45;6.80;74.70
7192;DHT22;3637;51.494;11.958;2023-02-28T14:58:01;6.10;73.80
7192;DHT22;3637;51.494;11.958;2023-02-28T15:01:04;5.90;73.50
7192;DHT22;3637;51.494;11.958;2023-02-28T15:04:21;5.90;72.90
7192;DHT22;3637;51.494;11.958;2023-02-28T15:07:25;6.20;74.60
7192;DHT22;3637;51.494;11.958;2023-02-28T15:10:30;5.90;73.30
7192;DHT22;3637;51.494;11.958;2023-02-28T15:13:38;5.80;73.30
7192;DHT22;3637;51.494;11.958;2023-02-28T15:16:42;5.70;74.70
7192;DHT22;3637;51.494;11.958;2023-02-28T15:19:50;6.30;73.70
7192;DHT22;3637;51.494;11.958;2023-02-28T15:22:55;5.80;73.50
7192;DHT22;3637;51.494;11.958;2023-02-28T15:25:58;5.70;73.90
7192;DHT22;3637;51.494;11.958;2023-02-28T15:29:06;5.70;74.60
7192;DHT22;3637;51.494;11.958;2023-02-28T15:32:25;5.60;75.60
7192;DHT22;3637;51.494;11.958;2023-02-28T15:35:30;5.70;75.70
7192;DHT22;3637;51.494;11.958;2023-02-28T15:38:35;6.10;74.70
7192;DHT22;3637;51.494;11.958;2023-02-28T15:41:38;5.70;75.20
7192;DHT22;3637;51.494;11.958;2023-02-28T15:44:39;5.70;76.20
7192;DHT22;3637;51.494;11.958;2023-02-28T15:47:45;5.80;76.80
7192;DHT22;3637;51.494;11.958;2023-02-28T15:50:52;5.90;75.60
7192;DHT22;3637;51.494;11.958;2023-02-28T15:53:57;5.80;75.70
7192;DHT22;3637;51.494;11.958;2023-02-28T15:57:04;5.70;74.90
7192;DHT22;3637;51.494;11.958;2023-02-28T16:00:12;5.60;75.40
7192;DHT22;3637;51.494;11.958;2023-02-28T16:03:34;5.60;75.90
7192;DHT22;3637;51.494;11.958;2023-02-28T16:06:41;6.00;76.90
7192;DHT22;3637;51.494;11.958;2023-02-28T16:09:43;6.20;76.80
7192;DHT22;3637;51.494;11.958;2023-02-28T16:12:48;5.50;76.50
7192;DHT22;3637;51.494;11.958;2023-02-28T16:15:50;5.50;76.90
7192;DHT22;3637;51.494;11.958;2023-02-28T16:18:52;5.40;76.80
7192;DHT22;3637;51.494;11.958;2023-02-28T16:22:11;5.40;77.90
7192;DHT22;3637;51.494;11.958;2023-02-28T16:25:39;6.20;79.10
7192;DHT22;3637;51.494;11.958;2023-02-28T16:28:57;5.30;78.20
7192;DHT22;3637;51.494;11.958;2023-02-28T16:32:00;5.10;78.00
7192;DHT22;3637;51.494;11.958;2023-02-28T16:35:05;5.60;78.80
7192;DHT22;3637;51.494;11.958;2023-02-28T16:38:11;5.90;79.60
7192;DHT22;3637;51.494;11.958;2023-02-28T16:41:16;5.10;79.50
7192;DHT22;3637;51.494;11.958;2023-02-28T16:44:32;5.10;79.80
7192;DHT22;3637;51.494;11.958;2023-02-28T16:47:40;5.50;80.70
7192;DHT22;3637;51.494;11.958;2023-02-28T16:50:49;5.00;81.60
7192;DHT22;3637;51.494;11.958;2023-02-28T16:53:52;4.90;81.80
7192;DHT22;3637;51.494;11.958;2023-02-28T16:56:59;5.40;82.40
7192;DHT22;3637;51.494;11.958;2023-02-28T17:00:03;5.30;83.20
7192;DHT22;3637;51.494;11.958;2023-02-28T17:03:32;5.30;83.00
7192;DHT22;3637;51.494;11.958;2023-02-28T17:06:37;4.90;82.50
7192;DHT22;3637;51.494;11.958;2023-02-28T17:09:41;5.20;83.30
7192;DHT22;3637;51.494;11.958;2023-02-28T17:12:44;4.80;83.50
7192;DHT22;3637;51.494;11.958;2023-02-28T17:15:46;5.60;84.50
7192;DHT22;3637;51.494;11.958;2023-02-28T17:18:48;4.70;84.70
7192;DHT22;3637;51.494;11.958;2023-02-28T17:21:51;6.00;87.60
7192;DHT22;3637;51.494;11.958;2023-02-28T17:24:58;4.40;86.30
7192;DHT22;3637;51.494;11.958;2023-02-28T17:28:04;4.60;86.80
7192;DHT22;3637;51.494;11.958;2023-02-28T17:31:26;5.00;87.90
7192;DHT22;3637;51.494;11.958;2023-02-28T17:34:33;4.50;88.00
7192;DHT22;3637;51.494;11.958;2023-02-28T17:37:41;4.60;88.60
7192;DHT22;3637;51.494;11.958;2023-02-28T17:40:45;4.50;89.80
7192;DHT22;3637;51.494;11.958;2023-02-28T17:43:53;4.70;90.20
7192;DHT22;3637;51.494;11.958;2023-02-28T17:46:58;4.80;91.10
7192;DHT22;3637;51.494;11.958;2023-02-28T17:50:04;4.90;91.20
7192;DHT22;3637;51.494;11.958;2023-02-28T17:53:06;4.30;91.60
7192;DHT22;3637;51.494;11.958;2023-02-28T17:56:20;4.20;91.60
7192;DHT22;3637;51.494;11.958;2023-02-28T17:59:41;4.20;91.60
7192;DHT22;3637;51.494;11.958;2023-02-28T18:02:52;4.60;92.50
7192;DHT22;3637;51.494;11.958;2023-02-28T18:06:06;4.30;92.40
7192;DHT22;3637;51.494;11.958;2023-02-28T18:09:14;4.00;92.50
7192;DHT22;3637;51.494;11.958;2023-02-28T18:12:32;4.00;92.40
7192;DHT22;3637;51.494;11.958;2023-02-28T18:15:40;4.10;92.50
7192;DHT22;3637;51.494;11.958;2023-02-28T18:18:49;3.90;92.30
7192;DHT22;3637;51.494;11.958;2023-02-28T18:22:02;3.90;92.00
7192;DHT22;3637;51.494;11.958;2023-02-28T18:25:06;3.90;92.40
7192;DHT22;3637;51.494;11.958;2023-02-28T18:28:13;3.90;92.80
7192;DHT22;3637;51.494;11.958;2023-02-28T18:31:16;3.80;93.00
7192;DHT22;3637;51.494;11.958;2023-02-28T18:34:24;3.80;93.10
7192;DHT22;3637;51.494;11.958;2023-02-28T18:37:41;3.80;93.90
7192;DHT22;3637;51.494;11.958;2023-02-28T18:40:51;3.60;94.70
7192;DHT22;3637;51.494;11.958;2023-02-28T18:43:54;3.60;95.40
7192;DHT22;3637;51.494;11.958;2023-02-28T18:46:56;4.10;96.50
7192;DHT22;3637;51.494;11.958;2023-02-28T18:49:58;3.60;97.20
7192;DHT22;3637;51.494;11.958;2023-02-28T18:53:00;3.20;97.80
7192;DHT22;3637;51.494;11.958;2023-02-28T18:56:04;3.90;98.60
7192;DHT22;3637;51.494;11.958;2023-02-28T18:59:08;3.10;99.00
7192;DHT22;3637;51.494;11.958;2023-02-28T19:02:10;3.10;99.60
7192;DHT22;3637;51.494;11.958;2023-02-28T19:05:12;3.20;99.90
7192;DHT22;3637;51.494;11.958;2023-02-28T19:08:14;3.00;99.90
7192;DHT22;3637;51.494;11.958;2023-02-28T19:11:17;2.90;99.90
7192;DHT22;3637;51.494;11.958;2023-02-28T19:14:23;3.60;99.90
7192;DHT22;3637;51.494;11.958;2023-02-28T19:17:27;3.00;99.90
7192;DHT22;3637;51.494;11.958;2023-02-28T19:20:29;2.70;99.90
7192;DHT22;3637;51.494;11.958;2023-02-28T19:23:33;2.70;99.90
7192;DHT22;3637;51.494;11.958;2023-02-28T19:26:35;2.70;99.90
7192;DHT22;3637;51.494;11.958;2023-02-28T19:29:39;2.60;99.90
7192;DHT22;3637;51.494;11.958;2023-02-28T19:32:41;2.80;99.90
7192;DHT22;3637;51.494;11.958;2023-02-28T19:35:44;2.50;99.90
7192;DHT22;3637;51.494;11.958;2023-02-28T19:38:46;2.40;99.90
7192;DHT22;3637;51.494;11.958;2023-02-28T19:41:51;2.40;99.90
7192;DHT22;3637;51.494;11.958;2023-02-28T19:45:02;2.30;99.90
7192;DHT22;3637;51.494;11.958;2023-02-28T19:48:04;2.30;99.90
7192;DHT22;3637;51.494;11.958;2023-02-28T19:51:17;2.30;99.90
7192;DHT22;3637;51.494;11.958;2023-02-28T19:54:19;2.20;99.90
7192;DHT22;3637;51.494;11.958;2023-02-28T19:57:21;2.20;99.90
7192;DHT22;3637;51.494;11.958;2023-02-28T20:00:27;2.10;99.90
7192;DHT22;3637;51.494;11.958;2023-02-28T20:03:31;2.00;99.90
7192;DHT22;3637;51.494;11.958;2023-02-28T20:06:38;2.00;99.90
7192;DHT22;3637;51.494;11.958;2023-02-28T20:09:40;1.90;99.90
7192;DHT22;3637;51.494;11.958;2023-02-28T20:12:47;2.10;99.90
7192;DHT22;3637;51.494;11.958;2023-02-28T20:16:16;1.90;99.90
7192;DHT22;3637;51.494;11.958;2023-02-28T20:19:27;2.50;99.90
7192;DHT22;3637;51.494;11.958;2023-02-28T20:22:31;1.60;99.90
7192;DHT22;3637;51.494;11.958;2023-02-28T20:25:38;1.70;99.90
7192;DHT22;3637;51.494;11.958;2023-02-28T20:28:54;1.70;99.90
7192;DHT22;3637;51.494;11.958;2023-02-28T20:32:09;1.70;99.90